Have a Safe July 4th! 

Flight Track Log - Related Links

Times and Time Zones

All times are in EDT time to prevent confusion due to time zone crossing. See the N201AK flight status page for this flight to view local times or setup timezone preferences in your user account.

Time Position Orientation Groundspeed Altitude Reporting Facility
EDT Latitude Longitude Course Direction KTS MPH feet Rate Location/Type
Wed 03:17:13 PM 38.3650 -75.5150 315° West 85 98 1,000  Level Washington Center
Wed 03:17:44 PM 38.3711 -75.5228 315° West 88 101 1,200 527 Climbing Washington Center
Wed 03:18:44 PM 38.3900 -75.5494 312° West 90 104 1,800 500 Climbing Washington Center
Wed 03:19:44 PM 38.4067 -75.5783 306° West 94 108 2,200 595 Climbing Washington Center
Wed 03:20:45 PM 38.4256 -75.5997 318° Northwest 90 104 3,000 689 Climbing Washington Center
Wed 03:21:46 PM 38.4400 -75.6236 308° West 90 104 3,600 532 Climbing Washington Center
Wed 03:22:49 PM 38.4567 -75.6472 312° West 91 105 4,100 532 Climbing Washington Center
Wed 03:23:50 PM 38.4756 -75.6739 312° West 90 104 4,700 545 Climbing Washington Center
Wed 03:24:50 PM 38.4922 -75.6953 315° West 90 104 5,200 496 Climbing Washington Center
Wed 03:25:51 PM 38.5089 -75.7192 312° West 92 106 5,700 347 Climbing Washington Center
Wed 03:26:51 PM 38.5233 -75.7403 311° West 89 102 5,900 70 Climbing Washington Center
Wed 03:28:43 PM 38.5667 -75.8000 313° West 143 165 5,900  Level Potomac TRACON
Wed 03:29:43 PM 38.6000 -75.8500 310° West 148 170 5,900  Level Potomac TRACON
Wed 03:30:38 PM 38.6333 -75.8833 322° Northwest 148 170 5,900  Level Potomac TRACON
Wed 03:31:44 PM 38.6500 -75.9167 303° West 144 166 5,900  Level Potomac TRACON
Wed 03:32:38 PM 38.6833 -75.9500 322° Northwest 145 167 5,900  Level Potomac TRACON
Wed 03:33:39 PM 38.7000 -76.0000 293° West 144 166 5,900  Level Potomac TRACON
Wed 03:34:39 PM 38.7333 -76.0333 322° Northwest 144 166 5,900  Level Potomac TRACON
Wed 03:35:34 PM 38.7667 -76.0667 322° Northwest 142 163 5,900  Level Potomac TRACON
Wed 03:36:34 PM 38.7833 -76.1000 303° West 144 166 5,900  Level Potomac TRACON
Wed 03:37:35 PM 38.8167 -76.1500 311° West 145 167 5,900 -50 Level Potomac TRACON
Wed 03:38:35 PM 38.8333 -76.1833 303° West 148 170 5,800 -300 Descending Potomac TRACON
Wed 03:39:35 PM 38.8167 -76.2500 252° West 165 190 5,300 -500 Descending Potomac TRACON
Wed 03:40:35 PM 38.8000 -76.3000 247° West 168 193 4,800 -496 Descending Potomac TRACON
Wed 03:41:36 PM 38.8000 -76.3500 270° West 163 188 4,300 -470 Descending Potomac TRACON
Wed 03:42:30 PM 38.7833 -76.4167 252° West 167 192 3,900 -69 Descending Potomac TRACON
Wed 03:44:00 PM 38.8422 -76.4503 333° Northwest  Level FlightAware Approximate
Wed 03:47:25 PM 38.7167 -76.6333 333° Northwest 142 163 3,900  Level Potomac TRACON
Wed 03:48:26 PM 38.7000 -76.6833 247° West 143 165 3,900  Level Potomac TRACON
Wed 03:49:26 PM 38.6667 -76.7167 218° Southwest 143 165 3,900  Level Potomac TRACON
Wed 03:50:26 PM 38.6500 -76.7667 247° West 139 160 3,900  Level Potomac TRACON
Wed 03:51:00 PM 39.1129 -76.6151 333° Northwest  Level FlightAware Approximate
Wed 03:51:27 PM 38.6167 -76.8000 218° Southwest 142 163 3,900  Level Potomac TRACON
Wed 03:52:00 PM 39.1513 -76.6400 333° Northwest  Level FlightAware Approximate
Wed 03:52:27 PM 38.6000 -76.8500 247° West 140 161 3,900  Level Potomac TRACON
Wed 03:53:28 PM 38.5833 -76.8833 237° Southwest 148 170 3,900  Level Potomac TRACON
Wed 03:54:28 PM 38.5500 -76.9167 218° Southwest 145 167 3,900  Level Potomac TRACON
Wed 03:55:29 PM 38.5333 -76.9667 247° West 144 166 3,900  Level Potomac TRACON
Wed 03:56:29 PM 38.5000 -77.0000 218° Southwest 150 173 3,900  Level Potomac TRACON
Wed 03:57:30 PM 38.4833 -77.0500 247° West 150 173 3,900  Level Potomac TRACON
Wed 03:58:30 PM 38.4500 -77.1000 230° Southwest 151 174 3,900  Level Potomac TRACON
Wed 03:59:31 PM 38.4333 -77.1333 237° Southwest 149 171 3,900  Level Potomac TRACON
Wed 04:00:31 PM 38.4167 -77.1833 247° West 147 169 3,900  Level Potomac TRACON
Wed 04:01:31 PM 38.4167 -77.2333 270° West 145 167 3,900  Level Potomac TRACON
Wed 04:02:32 PM 38.4167 -77.2833 270° West 148 170 3,900  Level Potomac TRACON
Wed 04:03:32 PM 38.4167 -77.3333 270° West 143 165 3,900  Level Potomac TRACON
Wed 04:04:33 PM 38.4000 -77.3833 247° West 140 161 3,900  Level Potomac TRACON
Wed 04:05:33 PM 38.4000 -77.4333 270° West 147 169 3,900  Level Potomac TRACON
Wed 04:06:34 PM 38.4167 -77.4833 293° West 144 166 3,900  Level Potomac TRACON
Wed 04:07:34 PM 38.4500 -77.5167 322° Northwest 149 171 3,900  Level Potomac TRACON
Wed 04:08:34 PM 38.4833 -77.5500 322° Northwest 152 175 3,900  Level Potomac TRACON
Wed 04:09:35 PM 38.5000 -77.5833 303° West 152 175 3,900  Level Potomac TRACON
Wed 04:10:35 PM 38.5333 -77.6167 322° Northwest 148 170 3,900  Level Potomac TRACON
Wed 04:11:41 PM 38.5667 -77.6667 310° West 152 175 3,900  Level Potomac TRACON
Wed 04:12:36 PM 38.6000 -77.7000 322° Northwest 148 170 3,900  Level Potomac TRACON
Wed 04:13:36 PM 38.6333 -77.7333 322° Northwest 145 167 3,900  Level Potomac TRACON
Wed 04:15:00 PM 38.6665 -77.6619 59° Northeast  Level FlightAware Approximate
Wed 04:15:37 PM 38.7000 -77.8000 59° Northeast 149 171 3,900  Level Potomac TRACON
Wed 04:16:38 PM 38.7333 -77.8333 322° Northwest 153 176 3,900  Level Potomac TRACON
Wed 04:17:38 PM 38.7500 -77.8667 303° West 154 177 3,900  Level Potomac TRACON
Wed 04:18:38 PM 38.7833 -77.9000 322° Northwest 154 177 3,900  Level Potomac TRACON
Wed 04:19:39 PM 38.8333 -77.9000 360° North 151 174 3,900  Level Potomac TRACON
Wed 04:20:39 PM 38.8833 -77.9000 360° North 153 176 3,900  Level Potomac TRACON
Wed 04:21:40 PM 38.9167 -77.8833 21° North 152 175 3,900 -50 Level Potomac TRACON
Wed 04:22:40 PM 38.9667 -77.8833 360° North 153 176 3,800 -157 Descending Potomac TRACON
Wed 04:23:35 PM 39.0000 -77.8667 21° North 157 181 3,600 -313 Descending Potomac TRACON
Wed 04:24:35 PM 39.0333 -77.8500 21° North 157 181 3,200 -381 Descending Potomac TRACON
Wed 04:25:41 PM 39.0667 -77.8000 49° Northeast 156 180 2,800 -397 Descending Potomac TRACON
Wed 04:26:36 PM 39.0833 -77.7667 57° Northeast 152 175 2,400 -436 Descending Potomac TRACON

Login

Don't have an account? Register now (free) for customized features, flight alerts, and more!